Time,TemperatureF,DewpointF,PressureIn,WindDirection,WindDirectionDegrees,WindSpeedMPH,WindSpeedGustMPH,Humidity,HourlyPrecipIn,Conditions,Clouds,dailyrainin,SoftwareType,DateUTC
2013-10-30 00:03:00,53.1,52.5,30.02,West,270,0.0,0.0,98,0.00,,,0.00,meteohub,2013-10-30 07:03:00,
2013-10-30 00:08:00,52.9,52.3,30.02,West,270,0.0,0.0,98,0.00,,,0.00,meteohub,2013-10-30 07:08:00,
2013-10-30 00:13:00,52.7,52.3,30.02,West,270,0.0,0.0,99,0.00,,,0.00,meteohub,2013-10-30 07:13:00,
2013-10-30 00:18:00,52.7,52.3,30.02,West,270,0.0,0.0,99,0.00,,,0.00,meteohub,2013-10-30 07:18:00,
2013-10-30 00:23:00,52.9,52.5,30.02,West,270,0.0,0.0,99,0.00,,,0.00,meteohub,2013-10-30 07:23:00,
2013-10-30 00:28:00,52.9,52.5,30.02,West,270,0.0,0.0,99,0.00,,,0.00,meteohub,2013-10-30 07:28:00,
2013-10-30 00:33:00,52.7,52.3,30.02,West,270,0.0,0.0,99,0.00,,,0.00,meteohub,2013-10-30 07:33:00,
2013-10-30 00:38:00,52.3,52.0,30.02,West,270,0.0,0.0,99,0.00,,,0.00,meteohub,2013-10-30 07:38:00,
2013-10-30 00:43:00,51.8,51.4,30.02,West,270,0.0,0.0,99,0.00,,,0.00,meteohub,2013-10-30 07:43:00,
2013-10-30 00:48:00,51.6,51.3,30.03,West,270,0.0,0.0,99,0.00,,,0.00,meteohub,2013-10-30 07:48:00,
2013-10-30 00:53:00,51.3,50.9,30.02,West,270,0.0,0.0,99,0.00,,,0.00,meteohub,2013-10-30 07:53:00,
2013-10-30 00:58:00,51.3,50.9,30.02,West,270,0.0,0.0,99,0.00,,,0.00,meteohub,2013-10-30 07:58:00,
2013-10-30 01:03:00,51.4,51.1,30.02,West,270,0.0,0.0,99,0.00,,,0.00,meteohub,2013-10-30 08:03:00,
2013-10-30 01:09:00,51.3,50.9,30.02,West,270,0.0,0.0,99,0.00,,,0.00,meteohub,2013-10-30 08:09:00,
2013-10-30 01:14:00,51.1,50.7,30.02,West,270,0.0,0.0,99,0.00,,,0.00,meteohub,2013-10-30 08:14:00,
2013-10-30 01:19:00,51.3,50.9,30.02,West,270,0.0,0.0,99,0.00,,,0.00,meteohub,2013-10-30 08:19:00,
2013-10-30 01:24:00,51.4,51.1,30.02,West,270,0.0,0.0,99,0.00,,,0.00,meteohub,2013-10-30 08:24:00,
2013-10-30 01:29:00,51.4,51.1,30.02,West,270,0.0,0.0,99,0.00,,,0.00,meteohub,2013-10-30 08:29:00,
2013-10-30 01:34:00,51.6,51.3,30.02,West,270,0.0,0.0,99,0.00,,,0.00,meteohub,2013-10-30 08:34:00,
2013-10-30 01:39:00,51.3,50.9,30.02,West,270,0.0,0.0,99,0.00,,,0.00,meteohub,2013-10-30 08:39:00,
2013-10-30 01:44:00,51.3,50.9,30.02,West,270,0.0,0.0,99,0.00,,,0.00,meteohub,2013-10-30 08:44:00,
2013-10-30 01:49:00,51.1,50.7,30.02,West,270,0.0,0.0,99,0.00,,,0.00,meteohub,2013-10-30 08:49:00,
2013-10-30 01:54:00,51.1,50.7,30.03,West,270,0.0,0.0,99,0.00,,,0.00,meteohub,2013-10-30 08:54:00,
2013-10-30 01:59:00,51.3,50.9,30.03,West,270,0.0,0.0,99,0.00,,,0.00,meteohub,2013-10-30 08:59:00,
2013-10-30 02:04:00,51.1,50.7,30.02,West,270,0.0,0.0,99,0.00,,,0.00,meteohub,2013-10-30 09:04:00,
2013-10-30 02:08:00,51.1,50.7,30.03,West,270,0.0,0.0,99,0.00,,,0.00,meteohub,2013-10-30 09:08:00,
2013-10-30 02:13:00,50.9,50.5,30.03,West,270,0.0,0.0,99,0.00,,,0.00,meteohub,2013-10-30 09:13:00,
2013-10-30 02:18:00,50.9,50.5,30.03,West,270,0.0,0.0,99,0.00,,,0.00,meteohub,2013-10-30 09:18:00,
2013-10-30 02:23:00,51.1,50.7,30.03,West,270,0.0,0.0,99,0.00,,,0.00,meteohub,2013-10-30 09:23:00,
2013-10-30 02:28:00,51.1,50.7,30.03,West,270,2.0,0.0,99,0.00,,,0.00,meteohub,2013-10-30 09:28:00,
2013-10-30 02:34:00,50.7,50.4,30.02,West,270,0.0,2.0,99,0.00,,,0.00,meteohub,2013-10-30 09:34:00,
2013-10-30 02:39:00,50.4,50.0,30.02,West,270,0.0,2.0,99,0.00,,,0.00,meteohub,2013-10-30 09:39:00,
2013-10-30 02:44:00,50.4,50.0,30.02,West,270,0.0,2.0,99,0.00,,,0.00,meteohub,2013-10-30 09:44:00,
2013-10-30 02:49:00,50.2,49.8,30.02,West,270,0.0,0.0,99,0.00,,,0.00,meteohub,2013-10-30 09:49:00,
2013-10-30 02:54:00,50.2,49.8,30.02,West,270,0.0,0.0,99,0.00,,,0.00,meteohub,2013-10-30 09:54:00,
2013-10-30 02:59:00,50.0,49.6,30.02,West,270,0.0,0.0,99,0.00,,,0.00,meteohub,2013-10-30 09:59:00,
2013-10-30 03:04:00,50.2,49.8,30.02,West,270,0.0,0.0,99,0.00,,,0.00,meteohub,2013-10-30 10:04:00,
2013-10-30 03:09:00,50.2,49.8,30.02,West,270,0.0,0.0,99,0.00,,,0.00,meteohub,2013-10-30 10:09:00,
2013-10-30 03:14:00,50.2,49.8,30.02,West,270,0.0,0.0,99,0.00,,,0.00,meteohub,2013-10-30 10:14:00,
2013-10-30 03:19:00,50.0,49.6,30.02,West,270,0.0,0.0,99,0.00,,,0.00,meteohub,2013-10-30 10:19:00,
2013-10-30 03:24:00,50.2,49.8,30.02,West,270,0.0,0.0,99,0.00,,,0.00,meteohub,2013-10-30 10:24:00,
2013-10-30 03:29:00,50.2,49.8,30.02,West,270,2.0,0.0,99,0.00,,,0.00,meteohub,2013-10-30 10:29:00,
2013-10-30 03:34:00,50.4,50.0,30.02,West,270,0.0,2.0,99,0.00,,,0.00,meteohub,2013-10-30 10:34:00,
2013-10-30 03:39:00,50.2,49.8,30.02,West,270,0.0,2.0,99,0.00,,,0.00,meteohub,2013-10-30 10:39:00,
2013-10-30 03:44:00,50.2,49.8,30.02,West,270,0.0,2.0,99,0.00,,,0.00,meteohub,2013-10-30 10:44:00,
2013-10-30 03:49:00,50.2,49.8,30.02,West,270,0.0,2.0,99,0.00,,,0.00,meteohub,2013-10-30 10:49:00,
2013-10-30 03:54:00,50.4,50.0,30.02,West,270,0.0,0.0,99,0.00,,,0.00,meteohub,2013-10-30 10:54:00,
2013-10-30 03:59:00,50.4,50.0,30.02,West,270,0.0,0.0,99,0.00,,,0.00,meteohub,2013-10-30 10:59:00,
2013-10-30 04:04:00,50.0,49.6,30.02,West,270,0.0,0.0,99,0.00,,,0.00,meteohub,2013-10-30 11:04:00,
2013-10-30 04:09:00,49.6,49.5,30.01,West,270,0.0,0.0,99,0.00,,,0.00,meteohub,2013-10-30 11:09:00,
2013-10-30 04:14:00,49.6,49.5,30.02,West,270,0.0,0.0,99,0.00,,,0.00,meteohub,2013-10-30 11:14:00,
2013-10-30 04:19:00,49.5,49.3,30.02,West,270,0.0,0.0,99,0.00,,,0.00,meteohub,2013-10-30 11:19:00,
2013-10-30 04:24:00,49.5,49.3,30.02,West,270,0.0,0.0,99,0.00,,,0.00,meteohub,2013-10-30 11:24:00,
2013-10-30 04:29:00,49.1,48.9,30.02,West,270,0.0,0.0,99,0.00,,,0.00,meteohub,2013-10-30 11:29:00,
2013-10-30 04:34:00,49.3,49.1,30.02,West,270,0.0,0.0,99,0.00,,,0.00,meteohub,2013-10-30 11:34:00,
2013-10-30 04:39:00,49.3,49.1,30.02,West,270,0.0,0.0,99,0.00,,,0.00,meteohub,2013-10-30 11:39:00,
2013-10-30 04:44:00,49.3,49.1,30.02,West,270,0.0,0.0,99,0.00,,,0.00,meteohub,2013-10-30 11:44:00,
2013-10-30 04:49:00,48.9,48.7,30.02,West,270,0.0,0.0,99,0.00,,,0.00,meteohub,2013-10-30 11:49:00,
2013-10-30 04:54:00,48.6,48.4,30.02,West,270,0.0,0.0,99,0.00,,,0.00,meteohub,2013-10-30 11:54:00,
2013-10-30 04:59:00,48.9,48.7,30.02,West,270,0.0,0.0,99,0.00,,,0.00,meteohub,2013-10-30 11:59:00,
2013-10-30 05:04:00,49.1,48.9,30.02,West,270,0.0,0.0,99,0.00,,,0.00,meteohub,2013-10-30 12:04:00,
2013-10-30 05:09:00,48.9,48.7,30.03,West,270,0.0,0.0,99,0.00,,,0.00,meteohub,2013-10-30 12:09:00,
2013-10-30 05:14:00,48.6,48.4,30.03,West,270,0.0,0.0,99,0.00,,,0.00,meteohub,2013-10-30 12:14:00,
2013-10-30 05:19:00,48.6,48.4,30.03,West,270,2.0,0.0,99,0.00,,,0.00,meteohub,2013-10-30 12:19:00,
2013-10-30 05:24:00,48.7,48.6,30.03,West,270,2.0,2.0,99,0.00,,,0.00,meteohub,2013-10-30 12:24:00,
2013-10-30 05:29:00,48.7,48.6,30.03,West,270,0.0,2.0,99,0.00,,,0.00,meteohub,2013-10-30 12:29:00,
2013-10-30 05:34:00,48.6,48.4,30.03,West,270,0.0,2.0,99,0.00,,,0.00,meteohub,2013-10-30 12:34:00,
2013-10-30 05:39:00,48.7,48.6,30.03,West,270,2.0,2.0,99,0.00,,,0.00,meteohub,2013-10-30 12:39:00,
2013-10-30 05:44:00,48.7,48.6,30.03,West,270,2.0,2.0,99,0.00,,,0.00,meteohub,2013-10-30 12:44:00,
2013-10-30 05:49:00,48.9,48.7,30.03,West,270,2.0,2.0,99,0.00,,,0.00,meteohub,2013-10-30 12:49:00,
2013-10-30 05:54:00,48.7,48.6,30.03,West,270,2.0,2.0,99,0.00,,,0.00,meteohub,2013-10-30 12:54:00,
2013-10-30 05:59:00,48.7,48.6,30.04,West,270,2.0,3.0,99,0.00,,,0.00,meteohub,2013-10-30 12:59:00,
2013-10-30 06:04:00,48.6,48.4,30.03,West,270,0.0,3.0,99,0.00,,,0.00,meteohub,2013-10-30 13:04:00,
2013-10-30 06:09:00,48.2,48.0,30.04,West,270,0.0,3.0,99,0.00,,,0.00,meteohub,2013-10-30 13:09:00,
2013-10-30 06:14:00,48.4,48.2,30.04,West,270,0.0,2.0,99,0.00,,,0.00,meteohub,2013-10-30 13:14:00,
2013-10-30 06:19:00,48.4,48.2,30.04,West,270,1.0,2.0,99,0.00,,,0.00,meteohub,2013-10-30 13:19:00,
2013-10-30 06:24:00,48.2,48.0,30.04,West,270,0.0,2.0,99,0.00,,,0.00,meteohub,2013-10-30 13:24:00,
2013-10-30 06:29:00,47.7,47.5,30.04,West,270,0.0,2.0,99,0.00,,,0.00,meteohub,2013-10-30 13:29:00,
2013-10-30 06:34:00,47.7,47.5,30.04,West,270,0.0,1.0,99,0.00,,,0.00,meteohub,2013-10-30 13:34:00,
2013-10-30 06:39:00,47.7,47.5,30.04,West,270,0.0,0.0,99,0.00,,,0.00,meteohub,2013-10-30 13:39:00,
2013-10-30 06:44:00,47.7,47.5,30.04,West,270,0.0,0.0,99,0.00,,,0.00,meteohub,2013-10-30 13:44:00,
2013-10-30 06:49:00,48.0,47.8,30.04,South,180,0.0,0.0,99,0.00,,,0.00,meteohub,2013-10-30 13:49:00,
2013-10-30 06:54:00,47.7,47.5,30.04,South,180,0.0,0.0,99,0.00,,,0.00,meteohub,2013-10-30 13:54:00,
2013-10-30 06:59:00,47.5,47.3,30.04,South,180,0.0,0.0,99,0.00,,,0.00,meteohub,2013-10-30 13:59:00,
2013-10-30 07:04:00,47.7,47.5,30.04,South,180,0.0,0.0,99,0.00,,,0.00,meteohub,2013-10-30 14:04:00,
2013-10-30 07:09:00,47.7,47.5,30.05,South,180,0.0,0.0,99,0.00,,,0.00,meteohub,2013-10-30 14:09:00,
2013-10-30 07:14:00,47.8,47.7,30.04,South,180,0.0,1.0,99,0.00,,,0.00,meteohub,2013-10-30 14:14:00,
2013-10-30 07:19:00,48.2,48.0,30.05,ESE,113,2.0,2.0,99,0.00,,,0.00,meteohub,2013-10-30 14:19:00,
2013-10-30 07:24:00,48.4,48.2,30.05,East,90,2.0,2.0,99,0.00,,,0.00,meteohub,2013-10-30 14:24:00,
2013-10-30 07:29:00,48.4,48.2,30.05,East,90,2.0,3.0,99,0.00,,,0.00,meteohub,2013-10-30 14:29:00,
2013-10-30 07:34:00,48.4,48.2,30.06,ESE,113,2.0,3.0,99,0.00,,,0.00,meteohub,2013-10-30 14:34:00,
2013-10-30 07:39:00,48.6,48.4,30.06,ESE,113,2.0,3.0,99,0.00,,,0.00,meteohub,2013-10-30 14:39:00,
2013-10-30 07:44:00,49.6,49.5,30.06,East,90,2.0,3.0,99,0.00,,,0.00,meteohub,2013-10-30 14:44:00,
2013-10-30 07:49:00,51.3,50.9,30.06,East,90,2.0,3.0,99,0.00,,,0.00,meteohub,2013-10-30 14:49:00,
2013-10-30 07:54:00,52.3,52.0,30.06,East,90,3.0,3.0,99,0.00,,,0.00,meteohub,2013-10-30 14:54:00,
2013-10-30 07:59:00,52.5,52.2,30.06,East,90,2.0,3.0,99,0.00,,,0.00,meteohub,2013-10-30 14:59:00,
2013-10-30 08:04:00,52.2,51.8,30.06,East,90,0.0,3.0,99,0.00,,,0.00,meteohub,2013-10-30 15:04:00,
2013-10-30 08:09:00,54.9,54.5,30.06,East,90,0.0,3.0,99,0.00,,,0.00,meteohub,2013-10-30 15:09:00,
2013-10-30 08:14:00,58.1,57.7,30.06,East,90,2.0,3.0,99,0.00,,,0.00,meteohub,2013-10-30 15:14:00,
2013-10-30 08:19:00,60.1,59.7,30.07,East,90,0.0,2.0,99,0.00,,,0.00,meteohub,2013-10-30 15:19:00,
2013-10-30 08:24:00,62.1,60.6,30.07,East,90,0.0,2.0,95,0.00,,,0.00,meteohub,2013-10-30 15:24:00,
2013-10-30 08:29:00,63.9,60.6,30.07,East,90,2.0,2.0,89,0.00,,,0.00,meteohub,2013-10-30 15:29:00,
2013-10-30 08:34:00,63.3,56.7,30.07,SE,135,2.0,2.0,79,0.00,,,0.00,meteohub,2013-10-30 15:34:00,
2013-10-30 08:39:00,63.1,56.1,30.07,ESE,113,2.0,3.0,78,0.00,,,0.00,meteohub,2013-10-30 15:39:00,
2013-10-30 08:44:00,64.2,58.6,30.07,SE,135,2.0,3.0,82,0.00,,,0.00,meteohub,2013-10-30 15:44:00,
2013-10-30 08:49:00,65.5,59.5,30.07,SE,135,0.0,3.0,81,0.00,,,0.00,meteohub,2013-10-30 15:49:00,
2013-10-30 08:54:00,67.3,59.9,30.07,SE,135,2.0,3.0,77,0.00,,,0.00,meteohub,2013-10-30 15:54:00,
2013-10-30 08:59:00,66.6,57.2,30.07,SE,135,2.0,2.0,72,0.00,,,0.00,meteohub,2013-10-30 15:59:00,
2013-10-30 09:04:00,66.4,57.0,30.07,SE,135,2.0,3.0,72,0.00,,,0.00,meteohub,2013-10-30 16:04:00,
2013-10-30 09:09:00,67.1,56.7,30.08,ESE,113,3.0,3.0,69,0.00,,,0.00,meteohub,2013-10-30 16:09:00,
2013-10-30 09:14:00,67.6,56.3,30.08,East,90,2.0,3.0,67,0.00,,,0.00,meteohub,2013-10-30 16:14:00,
2013-10-30 09:19:00,67.1,56.7,30.07,SE,135,2.0,4.0,69,0.00,,,0.00,meteohub,2013-10-30 16:19:00,
2013-10-30 09:23:00,68.2,57.2,30.08,SE,135,2.0,4.0,68,0.00,,,0.00,meteohub,2013-10-30 16:23:00,
2013-10-30 09:28:00,68.5,55.9,30.07,SE,135,2.0,4.0,64,0.00,,,0.00,meteohub,2013-10-30 16:28:00,
2013-10-30 09:33:00,67.3,55.6,30.08,South,180,3.0,3.0,66,0.00,,,0.00,meteohub,2013-10-30 16:33:00,
2013-10-30 09:38:00,68.4,56.5,30.08,SE,135,2.0,4.0,66,0.00,,,0.00,meteohub,2013-10-30 16:38:00,
2013-10-30 09:43:00,69.1,57.2,30.08,ESE,113,2.0,4.0,66,0.00,,,0.00,meteohub,2013-10-30 16:43:00,
2013-10-30 09:48:00,70.3,57.2,30.08,SE,135,2.0,4.0,63,0.00,,,0.00,meteohub,2013-10-30 16:48:00,
2013-10-30 09:54:00,71.1,57.7,30.08,East,90,2.0,4.0,63,0.00,,,0.00,meteohub,2013-10-30 16:54:00,
2013-10-30 09:59:00,71.4,57.2,30.08,ESE,113,2.0,4.0,61,0.00,,,0.00,meteohub,2013-10-30 16:59:00,
2013-10-30 10:04:00,72.7,57.6,30.08,East,90,2.0,4.0,59,0.00,,,0.00,meteohub,2013-10-30 17:04:00,
2013-10-30 10:09:00,72.9,54.7,30.08,NE,45,2.0,4.0,53,0.00,,,0.00,meteohub,2013-10-30 17:09:00,
2013-10-30 10:13:00,72.7,56.5,30.08,NNE,23,2.0,4.0,57,0.00,,,0.00,meteohub,2013-10-30 17:13:00,
2013-10-30 10:19:00,71.8,55.8,30.08,North,0,2.0,3.0,57,0.00,,,0.00,meteohub,2013-10-30 17:19:00,
2013-10-30 10:24:00,71.6,56.1,30.08,East,90,2.0,4.0,58,0.00,,,0.00,meteohub,2013-10-30 17:24:00,
2013-10-30 10:29:00,71.4,55.4,30.08,ESE,113,2.0,4.0,57,0.00,,,0.00,meteohub,2013-10-30 17:29:00,
2013-10-30 10:34:00,71.6,55.6,30.09,NE,45,2.0,5.0,57,0.00,,,0.00,meteohub,2013-10-30 17:34:00,
2013-10-30 10:39:00,70.9,54.3,30.09,North,0,4.0,5.0,56,0.00,,,0.00,meteohub,2013-10-30 17:39:00,
2013-10-30 10:44:00,71.8,53.2,30.08,NE,45,2.0,5.0,52,0.00,,,0.00,meteohub,2013-10-30 17:44:00,
2013-10-30 10:49:00,71.6,53.6,30.08,SW,225,2.0,4.0,53,0.00,,,0.00,meteohub,2013-10-30 17:49:00,
2013-10-30 10:54:00,71.6,52.5,30.08,NW,315,4.0,4.0,51,0.00,,,0.00,meteohub,2013-10-30 17:54:00,
2013-10-30 10:59:00,70.0,52.5,30.08,NNE,23,4.0,4.0,54,0.00,,,0.00,meteohub,2013-10-30 17:59:00,
2013-10-30 11:04:00,70.2,54.1,30.08,NNE,23,1.0,5.0,57,0.00,,,0.00,meteohub,2013-10-30 18:04:00,
2013-10-30 11:09:00,70.7,53.8,30.08,NW,315,1.0,5.0,55,0.00,,,0.00,meteohub,2013-10-30 18:09:00,
2013-10-30 11:14:00,70.0,53.6,30.08,NW,315,3.0,5.0,56,0.00,,,0.00,meteohub,2013-10-30 18:14:00,
2013-10-30 11:19:00,69.3,52.9,30.08,NNE,23,2.0,6.0,56,0.00,,,0.00,meteohub,2013-10-30 18:19:00,
2013-10-30 11:24:00,69.3,52.3,30.08,North,0,2.0,6.0,55,0.00,,,0.00,meteohub,2013-10-30 18:24:00,
2013-10-30 11:29:00,69.3,52.9,30.07,WSW,248,2.0,5.0,56,0.00,,,0.00,meteohub,2013-10-30 18:29:00,
2013-10-30 11:34:00,69.8,52.3,30.08,NE,45,2.0,5.0,54,0.00,,,0.00,meteohub,2013-10-30 18:34:00,
2013-10-30 11:39:00,69.8,52.3,30.07,NE,45,2.0,4.0,54,0.00,,,0.00,meteohub,2013-10-30 18:39:00,
2013-10-30 11:44:00,70.3,51.8,30.07,East,90,4.0,4.0,52,0.00,,,0.00,meteohub,2013-10-30 18:44:00,
2013-10-30 11:49:00,70.2,52.2,30.07,ENE,68,2.0,4.0,53,0.00,,,0.00,meteohub,2013-10-30 18:49:00,
2013-10-30 11:54:00,71.1,52.0,30.07,East,90,4.0,4.0,51,0.00,,,0.00,meteohub,2013-10-30 18:54:00,
2013-10-30 11:59:00,71.2,52.2,30.06,SE,135,3.0,4.0,51,0.00,,,0.00,meteohub,2013-10-30 18:59:00,
2013-10-30 12:04:00,72.0,51.8,30.06,SSE,158,3.0,4.0,49,0.00,,,0.00,meteohub,2013-10-30 19:04:00,
2013-10-30 12:09:00,72.5,54.3,30.06,West,270,10.0,10.0,53,0.00,,,0.00,meteohub,2013-10-30 19:09:00,
2013-10-30 12:14:00,71.4,55.4,30.06,West,270,8.0,10.0,57,0.00,,,0.00,meteohub,2013-10-30 19:14:00,
2013-10-30 12:19:00,69.4,56.3,30.06,West,270,7.0,10.0,63,0.00,,,0.00,meteohub,2013-10-30 19:19:00,
2013-10-30 12:24:00,69.1,56.8,30.06,NW,315,10.0,10.0,65,0.00,,,0.00,meteohub,2013-10-30 19:24:00,
2013-10-30 12:29:00,69.6,55.9,30.05,WNW,293,7.0,10.0,62,0.00,,,0.00,meteohub,2013-10-30 19:29:00,
2013-10-30 12:34:00,70.3,56.7,30.05,West,270,7.0,10.0,62,0.00,,,0.00,meteohub,2013-10-30 19:34:00,
2013-10-30 12:39:00,70.2,56.5,30.05,NW,315,8.0,10.0,62,0.00,,,0.00,meteohub,2013-10-30 19:39:00,
2013-10-30 12:44:00,70.0,57.2,30.05,NNW,338,8.0,11.0,64,0.00,,,0.00,meteohub,2013-10-30 19:44:00,
2013-10-30 12:49:00,70.3,56.3,30.05,NE,45,7.0,11.0,61,0.00,,,0.00,meteohub,2013-10-30 19:49:00,
2013-10-30 12:54:00,70.9,56.8,30.05,NE,45,5.0,11.0,61,0.00,,,0.00,meteohub,2013-10-30 19:54:00,
2013-10-30 12:59:00,70.5,56.5,30.04,West,270,9.0,9.0,61,0.00,,,0.00,meteohub,2013-10-30 19:59:00,
2013-10-30 13:04:00,69.6,56.8,30.04,NW,315,10.0,10.0,64,0.00,,,0.00,meteohub,2013-10-30 20:04:00,
2013-10-30 13:09:00,69.6,57.7,30.04,North,0,7.0,10.0,66,0.00,,,0.00,meteohub,2013-10-30 20:09:00,
2013-10-30 13:14:00,70.0,56.8,30.04,West,270,9.0,10.0,63,0.00,,,0.00,meteohub,2013-10-30 20:14:00,
2013-10-30 13:19:00,69.1,56.8,30.03,NW,315,5.0,10.0,65,0.00,,,0.00,meteohub,2013-10-30 20:19:00,
2013-10-30 13:24:00,69.3,57.0,30.03,NW,315,8.0,11.0,65,0.00,,,0.00,meteohub,2013-10-30 20:24:00,
2013-10-30 13:29:00,70.2,57.4,30.03,NW,315,8.0,11.0,64,0.00,,,0.00,meteohub,2013-10-30 20:29:00,
2013-10-30 13:34:00,69.8,57.6,30.03,West,270,8.0,11.0,65,0.00,,,0.00,meteohub,2013-10-30 20:34:00,
2013-10-30 13:39:00,68.9,57.6,30.02,North,0,9.0,9.0,67,0.00,,,0.00,meteohub,2013-10-30 20:39:00,
2013-10-30 13:44:00,69.1,56.8,30.02,West,270,6.0,10.0,65,0.00,,,0.00,meteohub,2013-10-30 20:44:00,
2013-10-30 13:49:00,69.4,57.2,30.02,West,270,7.0,11.0,65,0.00,,,0.00,meteohub,2013-10-30 20:49:00,
2013-10-30 13:54:00,69.3,56.5,30.02,NW,315,6.0,11.0,64,0.00,,,0.00,meteohub,2013-10-30 20:54:00,
2013-10-30 13:59:00,68.7,55.6,30.01,NW,315,9.0,10.0,63,0.00,,,0.00,meteohub,2013-10-30 20:59:00,
2013-10-30 14:04:00,69.4,55.9,30.01,NW,315,7.0,10.0,62,0.00,,,0.00,meteohub,2013-10-30 21:04:00,
2013-10-30 14:09:00,69.6,55.6,30.01,NW,315,7.0,9.0,61,0.00,,,0.00,meteohub,2013-10-30 21:09:00,
2013-10-30 14:14:00,69.4,55.4,30.01,NW,315,7.0,9.0,61,0.00,,,0.00,meteohub,2013-10-30 21:14:00,
2013-10-30 14:19:00,69.6,55.0,30.01,NW,315,8.0,8.0,60,0.00,,,0.00,meteohub,2013-10-30 21:19:00,
2013-10-30 14:24:00,69.6,54.7,30.01,NW,315,8.0,8.0,59,0.00,,,0.00,meteohub,2013-10-30 21:24:00,
2013-10-30 14:29:00,69.8,54.0,30.01,NW,315,9.0,9.0,57,0.00,,,0.00,meteohub,2013-10-30 21:29:00,
2013-10-30 14:34:00,69.1,53.2,30.01,WNW,293,11.0,11.0,57,0.00,,,0.00,meteohub,2013-10-30 21:34:00,
2013-10-30 14:39:00,68.9,54.5,30.01,NW,315,9.0,11.0,60,0.00,,,0.00,meteohub,2013-10-30 21:39:00,
2013-10-30 14:44:00,69.1,54.7,30.01,West,270,9.0,12.0,60,0.00,,,0.00,meteohub,2013-10-30 21:44:00,
2013-10-30 14:49:00,69.3,52.3,30.01,NW,315,8.0,12.0,55,0.00,,,0.00,meteohub,2013-10-30 21:49:00,
2013-10-30 14:54:00,69.3,52.3,30.01,WNW,293,10.0,12.0,55,0.00,,,0.00,meteohub,2013-10-30 21:54:00,
2013-10-30 14:59:00,69.4,51.6,30.01,West,270,7.0,11.0,53,0.00,,,0.00,meteohub,2013-10-30 21:59:00,
2013-10-30 15:04:00,70.0,51.1,30.00,NW,315,11.0,11.0,51,0.00,,,0.00,meteohub,2013-10-30 22:04:00,
2013-10-30 15:09:00,70.0,52.0,30.00,NW,315,6.0,11.0,53,0.00,,,0.00,meteohub,2013-10-30 22:09:00,
2013-10-30 15:14:00,70.2,52.7,30.00,West,270,7.0,13.0,54,0.00,,,0.00,meteohub,2013-10-30 22:14:00,
2013-10-30 15:19:00,70.2,52.2,30.01,NW,315,7.0,13.0,53,0.00,,,0.00,meteohub,2013-10-30 22:19:00,
2013-10-30 15:24:00,69.8,52.0,30.00,West,270,11.0,13.0,53,0.00,,,0.00,meteohub,2013-10-30 22:24:00,
2013-10-30 15:29:00,69.4,51.6,30.00,NW,315,8.0,13.0,53,0.00,,,0.00,meteohub,2013-10-30 22:29:00,
2013-10-30 15:34:00,70.0,50.0,30.01,West,270,8.0,13.0,49,0.00,,,0.00,meteohub,2013-10-30 22:34:00,
2013-10-30 15:39:00,70.3,52.9,30.00,NW,315,11.0,13.0,54,0.00,,,0.00,meteohub,2013-10-30 22:39:00,
2013-10-30 15:44:00,69.8,52.9,30.00,West,270,7.0,11.0,55,0.00,,,0.00,meteohub,2013-10-30 22:44:00,
2013-10-30 15:49:00,69.8,54.0,30.00,NW,315,9.0,12.0,57,0.00,,,0.00,meteohub,2013-10-30 22:49:00,
2013-10-30 15:54:00,69.6,51.8,30.00,NW,315,8.0,12.0,53,0.00,,,0.00,meteohub,2013-10-30 22:54:00,
2013-10-30 15:59:00,69.4,52.5,30.00,NW,315,11.0,12.0,55,0.00,,,0.00,meteohub,2013-10-30 22:59:00,
2013-10-30 16:04:00,69.6,53.8,30.00,WNW,293,9.0,12.0,57,0.00,,,0.00,meteohub,2013-10-30 23:04:00,
2013-10-30 16:09:00,69.4,53.1,30.00,NW,315,12.0,13.0,56,0.00,,,0.00,meteohub,2013-10-30 23:09:00,
2013-10-30 16:14:00,69.3,52.9,30.00,NW,315,11.0,13.0,56,0.00,,,0.00,meteohub,2013-10-30 23:14:00,
2013-10-30 16:19:00,68.9,51.1,30.00,NW,315,7.0,13.0,53,0.00,,,0.00,meteohub,2013-10-30 23:19:00,
2013-10-30 16:25:00,69.4,52.2,29.99,NW,315,8.0,13.0,54,0.00,,,0.00,meteohub,2013-10-30 23:25:00,
2013-10-30 16:30:00,69.4,52.5,29.99,NW,315,9.0,13.0,55,0.00,,,0.00,meteohub,2013-10-30 23:30:00,
2013-10-30 16:35:00,69.4,50.0,29.99,NW,315,10.0,13.0,50,0.00,,,0.00,meteohub,2013-10-30 23:35:00,
2013-10-30 16:40:00,69.3,50.9,29.99,NW,315,9.0,11.0,52,0.00,,,0.00,meteohub,2013-10-30 23:40:00,
2013-10-30 16:45:00,69.4,51.6,29.99,NW,315,8.0,11.0,53,0.00,,,0.00,meteohub,2013-10-30 23:45:00,
2013-10-30 16:50:00,69.3,50.9,29.99,NW,315,8.0,11.0,52,0.00,,,0.00,meteohub,2013-10-30 23:50:00,
2013-10-30 16:55:00,69.4,52.2,29.99,North,0,4.0,11.0,54,0.00,,,0.00,meteohub,2013-10-30 23:55:00,
2013-10-30 17:00:00,69.6,51.8,29.99,NW,315,8.0,11.0,53,0.00,,,0.00,meteohub,2013-10-31 00:00:00,
2013-10-30 17:05:00,69.8,54.3,29.99,NNW,338,5.0,11.0,58,0.00,,,0.00,meteohub,2013-10-31 00:05:00,
2013-10-30 17:10:00,69.6,55.6,29.99,West,270,7.0,10.0,61,0.00,,,0.00,meteohub,2013-10-31 00:10:00,
2013-10-30 17:15:00,69.1,56.5,29.99,NW,315,6.0,8.0,64,0.00,,,0.00,meteohub,2013-10-31 00:15:00,
2013-10-30 17:20:00,69.1,55.9,29.99,NW,315,6.0,8.0,63,0.00,,,0.00,meteohub,2013-10-31 00:20:00,
2013-10-30 17:25:00,69.4,56.3,30.00,North,0,2.0,8.0,63,0.00,,,0.00,meteohub,2013-10-31 00:25:00,
2013-10-30 17:30:00,69.8,56.7,30.00,North,0,2.0,8.0,63,0.00,,,0.00,meteohub,2013-10-31 00:30:00,
2013-10-30 17:35:00,68.9,56.3,30.00,NNW,338,4.0,7.0,64,0.00,,,0.00,meteohub,2013-10-31 00:35:00,
2013-10-30 17:40:00,67.5,56.1,30.00,NE,45,7.0,7.0,67,0.00,,,0.00,meteohub,2013-10-31 00:40:00,
2013-10-30 17:45:00,66.2,55.8,30.00,North,0,4.0,7.0,69,0.00,,,0.00,meteohub,2013-10-31 00:45:00,
2013-10-30 17:50:00,65.3,55.6,30.00,NNE,23,6.0,7.0,71,0.00,,,0.00,meteohub,2013-10-31 00:50:00,
2013-10-30 17:55:00,64.8,54.7,30.00,North,0,6.0,7.0,70,0.00,,,0.00,meteohub,2013-10-31 00:55:00,
2013-10-30 18:00:00,64.4,54.0,30.00,NE,45,3.0,7.0,69,0.00,,,0.00,meteohub,2013-10-31 01:00:00,
2013-10-30 18:05:00,63.9,53.1,30.00,North,0,8.0,8.0,68,0.00,,,0.00,meteohub,2013-10-31 01:05:00,
2013-10-30 18:10:00,63.5,52.3,30.00,North,0,7.0,7.0,67,0.00,,,0.00,meteohub,2013-10-31 01:10:00,
2013-10-30 18:15:00,63.1,52.9,30.01,NE,45,4.0,8.0,69,0.00,,,0.00,meteohub,2013-10-31 01:15:00,
2013-10-30 18:20:00,63.0,53.8,30.01,North,0,4.0,8.0,72,0.00,,,0.00,meteohub,2013-10-31 01:20:00,
2013-10-30 18:25:00,62.6,53.8,30.01,NE,45,2.0,8.0,73,0.00,,,0.00,meteohub,2013-10-31 01:25:00,
2013-10-30 18:30:00,62.2,54.1,30.01,North,0,3.0,8.0,75,0.00,,,0.00,meteohub,2013-10-31 01:30:00,
2013-10-30 18:35:00,62.2,54.5,30.02,NNE,23,4.0,6.0,76,0.00,,,0.00,meteohub,2013-10-31 01:35:00,
2013-10-30 18:40:00,62.1,54.3,30.01,North,0,3.0,6.0,76,0.00,,,0.00,meteohub,2013-10-31 01:40:00,
2013-10-30 18:45:00,61.7,54.5,30.02,North,0,2.0,6.0,77,0.00,,,0.00,meteohub,2013-10-31 01:45:00,
2013-10-30 18:50:00,61.3,54.1,30.02,NE,45,2.0,6.0,77,0.00,,,0.00,meteohub,2013-10-31 01:50:00,
2013-10-30 18:55:00,61.0,54.1,30.02,NE,45,1.0,5.0,78,0.00,,,0.00,meteohub,2013-10-31 01:55:00,
2013-10-30 19:01:00,60.4,53.6,30.02,NE,45,2.0,5.0,78,0.00,,,0.00,meteohub,2013-10-31 02:01:00,
2013-10-30 19:06:00,60.3,53.8,30.02,NE,45,2.0,2.0,79,0.00,,,0.00,meteohub,2013-10-31 02:06:00,
2013-10-30 19:11:00,60.1,53.6,30.03,NE,45,0.0,4.0,79,0.00,,,0.00,meteohub,2013-10-31 02:11:00,
2013-10-30 19:16:00,59.7,53.2,30.03,NE,45,0.0,4.0,79,0.00,,,0.00,meteohub,2013-10-31 02:16:00,
2013-10-30 19:21:00,59.4,52.9,30.03,NE,45,0.0,4.0,79,0.00,,,0.00,meteohub,2013-10-31 02:21:00,
2013-10-30 19:26:00,59.0,52.9,30.03,NE,45,2.0,2.0,80,0.00,,,0.00,meteohub,2013-10-31 02:26:00,
2013-10-30 19:31:00,58.8,52.7,30.03,NE,45,2.0,2.0,80,0.00,,,0.00,meteohub,2013-10-31 02:31:00,
2013-10-30 19:36:00,59.0,53.2,30.03,NE,45,3.0,3.0,81,0.00,,,0.00,meteohub,2013-10-31 02:36:00,
2013-10-30 19:41:00,59.0,52.9,30.03,NE,45,2.0,4.0,80,0.00,,,0.00,meteohub,2013-10-31 02:41:00,
2013-10-30 19:46:00,58.8,52.7,30.03,NE,45,2.0,4.0,80,0.00,,,0.00,meteohub,2013-10-31 02:46:00,
2013-10-30 19:51:00,58.5,52.3,30.03,NE,45,2.0,3.0,80,0.00,,,0.00,meteohub,2013-10-31 02:51:00,
2013-10-30 19:56:00,58.1,52.3,30.03,NE,45,0.0,2.0,81,0.00,,,0.00,meteohub,2013-10-31 02:56:00,
2013-10-30 20:01:00,57.7,52.0,30.03,NE,45,0.0,2.0,81,0.00,,,0.00,meteohub,2013-10-31 03:01:00,
2013-10-30 20:06:00,57.7,52.3,30.03,NE,45,1.0,2.0,82,0.00,,,0.00,meteohub,2013-10-31 03:06:00,
2013-10-30 20:11:00,57.4,52.3,30.03,NE,45,0.0,1.0,83,0.00,,,0.00,meteohub,2013-10-31 03:11:00,
2013-10-30 20:16:00,57.2,52.7,30.03,NE,45,0.0,1.0,85,0.00,,,0.00,meteohub,2013-10-31 03:16:00,
2013-10-30 20:21:00,57.2,52.3,30.03,NE,45,0.0,1.0,84,0.00,,,0.00,meteohub,2013-10-31 03:21:00,
2013-10-30 20:26:00,56.7,52.2,30.03,NE,45,0.0,1.0,85,0.00,,,0.00,meteohub,2013-10-31 03:26:00,
2013-10-30 20:31:00,56.3,51.8,30.03,NE,45,0.0,0.0,85,0.00,,,0.00,meteohub,2013-10-31 03:31:00,
2013-10-30 20:36:00,56.1,52.7,30.03,NE,45,0.0,0.0,88,0.00,,,0.00,meteohub,2013-10-31 03:36:00,
2013-10-30 20:41:00,56.1,52.7,30.03,NE,45,0.0,0.0,88,0.00,,,0.00,meteohub,2013-10-31 03:41:00,
2013-10-30 20:46:00,55.8,52.5,30.03,NE,45,0.0,0.0,89,0.00,,,0.00,meteohub,2013-10-31 03:46:00,
2013-10-30 20:51:00,55.4,52.2,30.03,NE,45,0.0,0.0,89,0.00,,,0.00,meteohub,2013-10-31 03:51:00,
2013-10-30 20:56:00,55.0,52.2,30.03,NE,45,0.0,0.0,90,0.00,,,0.00,meteohub,2013-10-31 03:56:00,
2013-10-30 21:01:00,55.0,52.5,30.03,NE,45,0.0,0.0,91,0.00,,,0.00,meteohub,2013-10-31 04:01:00,
2013-10-30 21:02:00,55.2,52.9,30.04,NE,45,0.0,0.0,92,0.00,,,0.00,meteohub,2013-10-31 04:02:00,
2013-10-30 21:07:00,55.4,53.1,30.04,NE,45,0.0,0.0,92,0.00,,,0.00,meteohub,2013-10-31 04:07:00,
2013-10-30 21:12:00,55.4,53.1,30.04,NE,45,0.0,0.0,92,0.00,,,0.00,meteohub,2013-10-31 04:12:00,
2013-10-30 21:17:00,55.6,53.6,30.03,NE,45,0.0,0.0,93,0.00,,,0.00,meteohub,2013-10-31 04:17:00,
2013-10-30 21:22:00,55.8,53.8,30.04,NE,45,0.0,0.0,93,0.00,,,0.00,meteohub,2013-10-31 04:22:00,
2013-10-30 21:27:00,55.4,53.4,30.04,NE,45,0.0,0.0,93,0.00,,,0.00,meteohub,2013-10-31 04:27:00,
2013-10-30 21:32:00,55.4,53.8,30.04,NE,45,0.0,0.0,94,0.00,,,0.00,meteohub,2013-10-31 04:32:00,
2013-10-30 21:37:00,55.4,54.0,30.04,NE,45,0.0,0.0,95,0.00,,,0.00,meteohub,2013-10-31 04:37:00,
2013-10-30 21:42:00,55.6,54.1,30.04,NE,45,0.0,0.0,95,0.00,,,0.00,meteohub,2013-10-31 04:42:00,
2013-10-30 21:47:00,55.2,53.6,30.04,NE,45,0.0,0.0,94,0.00,,,0.00,meteohub,2013-10-31 04:47:00,
2013-10-30 21:52:00,54.7,53.1,30.04,NE,45,0.0,0.0,94,0.00,,,0.00,meteohub,2013-10-31 04:52:00,
2013-10-30 21:57:00,54.1,52.7,30.05,NE,45,0.0,0.0,95,0.00,,,0.00,meteohub,2013-10-31 04:57:00,
2013-10-30 22:02:00,54.0,52.5,30.05,NE,45,0.0,0.0,95,0.00,,,0.00,meteohub,2013-10-31 05:02:00,
2013-10-30 22:07:00,54.3,53.4,30.05,NE,45,0.0,0.0,97,0.00,,,0.00,meteohub,2013-10-31 05:07:00,
2013-10-30 22:12:00,54.3,53.2,30.05,NE,45,0.0,0.0,96,0.00,,,0.00,meteohub,2013-10-31 05:12:00,
2013-10-30 22:17:00,54.3,53.4,30.05,NE,45,0.0,0.0,97,0.00,,,0.00,meteohub,2013-10-31 05:17:00,
2013-10-30 22:22:00,54.5,53.6,30.05,NE,45,0.0,2.0,97,0.00,,,0.00,meteohub,2013-10-31 05:22:00,
2013-10-30 22:27:00,54.5,54.0,30.05,NE,45,0.0,2.0,98,0.00,,,0.00,meteohub,2013-10-31 05:27:00,
2013-10-30 22:32:00,54.5,54.0,30.06,NE,45,0.0,2.0,98,0.00,,,0.00,meteohub,2013-10-31 05:32:00,
2013-10-30 22:37:00,54.1,53.2,30.06,NE,45,0.0,2.0,97,0.00,,,0.00,meteohub,2013-10-31 05:37:00,
2013-10-30 22:42:00,53.6,52.7,30.06,NE,45,0.0,0.0,97,0.00,,,0.00,meteohub,2013-10-31 05:42:00,
2013-10-30 22:47:00,53.1,52.2,30.06,NE,45,0.0,0.0,97,0.00,,,0.00,meteohub,2013-10-31 05:47:00,
2013-10-30 22:52:00,53.1,52.5,30.06,NE,45,0.0,0.0,98,0.00,,,0.00,meteohub,2013-10-31 05:52:00,
2013-10-30 22:57:00,53.1,52.5,30.06,NE,45,0.0,0.0,98,0.00,,,0.00,meteohub,2013-10-31 05:57:00,
2013-10-30 23:02:00,52.9,52.5,30.06,NE,45,0.0,1.0,99,0.00,,,0.00,meteohub,2013-10-31 06:02:00,
2013-10-30 23:07:00,52.5,52.2,30.06,NE,45,0.0,1.0,99,0.00,,,0.00,meteohub,2013-10-31 06:07:00,
2013-10-30 23:12:00,52.7,52.3,30.06,NE,45,0.0,0.0,99,0.00,,,0.00,meteohub,2013-10-31 06:12:00,
2013-10-30 23:17:00,52.5,52.2,30.06,NE,45,0.0,0.0,99,0.00,,,0.00,meteohub,2013-10-31 06:17:00,
2013-10-30 23:22:00,52.3,52.0,30.06,NE,45,0.0,0.0,99,0.00,,,0.00,meteohub,2013-10-31 06:22:00,
2013-10-30 23:27:00,52.2,51.8,30.06,NE,45,0.0,0.0,99,0.00,,,0.00,meteohub,2013-10-31 06:27:00,
2013-10-30 23:32:00,52.0,51.6,30.06,NE,45,0.0,0.0,99,0.00,,,0.00,meteohub,2013-10-31 06:32:00,
2013-10-30 23:37:00,51.6,51.3,30.06,NE,45,0.0,0.0,99,0.00,,,0.00,meteohub,2013-10-31 06:37:00,
2013-10-30 23:42:00,51.8,51.4,30.06,NE,45,0.0,0.0,99,0.00,,,0.00,meteohub,2013-10-31 06:42:00,
2013-10-30 23:47:00,52.3,52.0,30.06,NE,45,0.0,0.0,99,0.00,,,0.00,meteohub,2013-10-31 06:47:00,
2013-10-30 23:52:00,52.3,52.0,30.06,NE,45,0.0,0.0,99,0.00,,,0.00,meteohub,2013-10-31 06:52:00,
2013-10-30 23:57:00,52.5,52.2,30.06,NE,45,2.0,2.0,99,0.00,,,0.00,meteohub,2013-10-31 06:57:00,